createdAt,value
2023-01-19T00:01:29.316Z,-0.96
2023-01-19T00:03:57.316Z,-0.94
2023-01-19T00:06:25.264Z,-0.96
2023-01-19T00:08:53.239Z,-0.94
2023-01-19T00:11:21.410Z,-1.04
2023-01-19T00:13:51.125Z,-1.03
2023-01-19T00:16:22.996Z,-1.05
2023-01-19T00:18:54.016Z,-1.04
2023-01-19T00:21:22.750Z,-1.08
2023-01-19T00:23:52.652Z,-1.14
2023-01-19T00:26:22.349Z,-1.11
2023-01-19T00:28:51.120Z,-1.10
2023-01-19T00:31:21.848Z,-1.04
2023-01-19T00:33:51.630Z,-1.11
2023-01-19T00:36:21.735Z,-1.21
2023-01-19T00:38:49.621Z,-1.13
2023-01-19T00:41:17.633Z,-1.30
2023-01-19T00:43:44.848Z,-1.25
2023-01-19T00:46:12.857Z,-1.12
2023-01-19T00:48:40.819Z,-1.14
2023-01-19T00:51:08.938Z,-1.25
2023-01-19T00:53:38.260Z,-1.19
2023-01-19T00:56:06.908Z,-1.19
2023-01-19T00:58:34.823Z,-1.30
2023-01-19T01:01:04.872Z,-1.24
2023-01-19T01:03:33.646Z,-1.26
2023-01-19T01:06:01.669Z,-1.23
2023-01-19T01:08:29.809Z,-1.25
2023-01-19T01:10:59.202Z,-1.29
2023-01-19T01:13:28.326Z,-1.32
2023-01-19T01:15:58.238Z,-1.26
2023-01-19T01:18:26.604Z,-1.23
2023-01-19T01:20:56.315Z,-1.27
2023-01-19T01:23:24.456Z,-1.21
2023-01-19T01:25:52.380Z,-1.27
2023-01-19T01:28:21.760Z,-1.28
2023-01-19T01:30:49.745Z,-1.33
2023-01-19T01:33:40.404Z,-1.30
2023-01-19T01:36:06.291Z,-1.26
2023-01-19T01:38:34.428Z,-1.45
2023-01-19T01:41:02.407Z,-1.35
2023-01-19T01:43:45.717Z,-1.37
2023-01-19T01:46:16.293Z,-1.49
2023-01-19T01:48:49.966Z,-1.43
2023-01-19T01:51:26.425Z,-1.62
2023-01-19T01:54:08.020Z,-1.57
2023-01-19T01:56:38.928Z,-1.64
2023-01-19T01:59:13.583Z,-1.96
2023-01-19T02:01:58.839Z,-1.63
2023-01-19T02:04:28.227Z,-1.66
2023-01-19T02:07:13.543Z,-1.78
2023-01-19T02:09:59.077Z,-1.76
2023-01-19T02:12:44.690Z,-1.73
2023-01-19T02:15:20.266Z,-1.71
2023-01-19T02:17:48.976Z,-1.79
2023-01-19T02:20:17.817Z,-1.85
2023-01-19T02:22:51.007Z,-1.97
2023-01-19T02:25:21.200Z,-1.87
2023-01-19T02:27:50.258Z,-1.85
2023-01-19T02:30:18.981Z,-1.86
2023-01-19T02:32:47.106Z,-1.85
2023-01-19T02:35:15.271Z,-2.01
2023-01-19T02:37:45.546Z,-1.79
2023-01-19T02:40:16.325Z,-1.76
2023-01-19T02:42:49.758Z,-1.81
2023-01-19T02:45:21.730Z,-1.76
2023-01-19T02:47:52.607Z,-1.80
2023-01-19T02:50:41.833Z,-1.78
2023-01-19T02:54:03.412Z,-1.72
2023-01-19T02:57:06.791Z,-1.78
2023-01-19T02:59:49.218Z,-1.74
2023-01-19T03:02:29.080Z,-1.77
2023-01-19T03:05:17.380Z,-1.74
2023-01-19T03:07:54.708Z,-1.79
2023-01-19T03:10:33.151Z,-1.83
2023-01-19T03:13:08.410Z,-2.03
2023-01-19T03:15:44.876Z,-1.99
2023-01-19T03:18:15.965Z,-1.76
2023-01-19T03:20:45.528Z,-1.73
2023-01-19T03:23:16.709Z,-1.80
2023-01-19T03:25:47.758Z,-1.63
2023-01-19T03:28:18.540Z,-1.72
2023-01-19T03:30:54.750Z,-1.51
2023-01-19T03:33:28.016Z,-1.53
2023-01-19T03:36:03.795Z,-1.62
2023-01-19T03:38:35.632Z,-1.64
2023-01-19T03:41:05.935Z,-1.74
2023-01-19T03:43:36.454Z,-1.63
2023-01-19T03:46:07.573Z,-1.62
2023-01-19T03:48:35.861Z,-1.58
2023-01-19T03:51:05.449Z,-1.68
2023-01-19T03:53:33.524Z,-1.85
2023-01-19T03:56:01.798Z,-1.81
2023-01-19T03:58:29.751Z,-1.86
2023-01-19T04:00:57.781Z,-1.80
2023-01-19T04:03:27.116Z,-1.92
2023-01-19T04:05:57.522Z,-1.92
2023-01-19T04:08:25.444Z,-1.96
2023-01-19T04:10:53.411Z,-1.93
2023-01-19T04:13:21.381Z,-1.90
2023-01-19T04:15:49.380Z,-1.91
2023-01-19T04:18:17.416Z,-1.97
2023-01-19T04:20:46.960Z,-2.15
2023-01-19T04:23:14.835Z,-2.03
2023-01-19T04:25:42.766Z,-2.09
2023-01-19T04:28:10.641Z,-2.07
2023-01-19T04:30:38.913Z,-2.02
2023-01-19T04:33:07.105Z,-2.04
2023-01-19T04:35:35.585Z,-2.07
2023-01-19T04:38:04.971Z,-2.03
2023-01-19T04:40:32.977Z,-2.11
2023-01-19T04:43:01.356Z,-2.09
2023-01-19T04:45:29.498Z,-2.20
2023-01-19T04:47:57.479Z,-2.13
2023-01-19T04:50:25.620Z,-2.11
2023-01-19T04:52:53.615Z,-2.12
2023-01-19T04:55:22.953Z,-2.21
2023-01-19T04:57:50.989Z,-2.27
2023-01-19T05:00:20.882Z,-2.26
2023-01-19T05:02:49.102Z,-2.22
2023-01-19T05:05:17.637Z,-2.18
2023-01-19T05:07:45.731Z,-2.21
2023-01-19T05:10:13.931Z,-2.19
2023-01-19T05:12:43.334Z,-2.17
2023-01-19T05:15:12.026Z,-2.40
2023-01-19T05:17:39.912Z,-2.39
2023-01-19T05:20:10.463Z,-2.20
2023-01-19T05:22:38.490Z,-2.13
2023-01-19T05:25:08.819Z,-2.28
2023-01-19T05:27:37.156Z,-2.26
2023-01-19T05:30:07.972Z,-2.22
2023-01-19T05:32:35.966Z,-2.15
2023-01-19T05:35:03.962Z,-1.99
2023-01-19T05:37:32.716Z,-1.88
2023-01-19T05:40:00.691Z,-1.90
2023-01-19T05:42:28.944Z,-1.75
2023-01-19T05:44:57.479Z,-1.75
2023-01-19T05:47:27.019Z,-1.69
2023-01-19T05:49:55.252Z,-1.76
2023-01-19T05:52:25.008Z,-1.76
2023-01-19T05:54:55.179Z,-1.76
2023-01-19T05:57:23.369Z,-1.79
2023-01-19T05:59:51.467Z,-1.91
2023-01-19T06:02:19.424Z,-1.82
2023-01-19T06:04:48.754Z,-1.70
2023-01-19T06:07:16.718Z,-1.65
2023-01-19T06:09:44.687Z,-1.72
2023-01-19T06:12:12.589Z,-1.78
2023-01-19T06:14:40.963Z,-1.62
2023-01-19T06:17:08.900Z,-1.56
2023-01-19T06:19:36.942Z,-1.63
2023-01-19T06:22:06.390Z,-1.65
2023-01-19T06:24:34.358Z,-1.89
2023-01-19T06:27:02.265Z,-1.73
2023-01-19T06:29:30.202Z,-1.61
2023-01-19T06:31:58.253Z,-1.65
2023-01-19T06:34:29.092Z,-1.72
2023-01-19T06:36:57.335Z,-1.72
2023-01-19T06:39:27.541Z,-1.75
2023-01-19T06:41:55.527Z,-1.80
2023-01-19T06:44:23.487Z,-1.96
2023-01-19T06:46:51.399Z,-2.08
2023-01-19T06:49:39.357Z,-2.16
2023-01-19T06:52:07.922Z,-2.25
2023-01-19T06:54:37.380Z,-2.20
2023-01-19T06:57:06.149Z,-2.20
2023-01-19T06:59:34.146Z,-2.20
2023-01-19T07:02:26.461Z,-2.24
2023-01-19T07:04:50.064Z,-2.10
2023-01-19T07:07:18.025Z,-2.00
2023-01-19T07:09:47.411Z,-2.17
2023-01-19T07:12:16.047Z,-1.83
2023-01-19T07:14:44.220Z,-1.65
2023-01-19T07:17:13.438Z,-1.59
2023-01-19T07:19:41.420Z,-1.54
2023-01-19T07:22:09.331Z,-1.46
2023-01-19T07:24:38.260Z,-1.28
2023-01-19T07:27:07.706Z,-1.31
2023-01-19T07:29:35.664Z,-1.22
2023-01-19T07:32:03.613Z,-1.17
2023-01-19T07:34:31.811Z,-1.19
2023-01-19T07:36:59.762Z,-1.11
2023-01-19T07:39:27.947Z,-1.16
2023-01-19T07:41:55.825Z,-1.07
2023-01-19T07:44:25.086Z,-0.99
2023-01-19T07:46:52.995Z,-1.00
2023-01-19T07:49:21.768Z,-0.94
2023-01-19T07:51:49.731Z,-0.98
2023-01-19T07:54:17.627Z,-0.89
2023-01-19T07:56:45.584Z,-0.99
2023-01-19T07:59:13.664Z,-0.80
2023-01-19T08:01:43.182Z,-0.78
2023-01-19T08:04:11.688Z,-0.82
2023-01-19T08:06:41.617Z,-0.71
2023-01-19T08:09:10.114Z,-0.68
2023-01-19T08:11:38.088Z,-0.67
2023-01-19T08:14:07.939Z,-0.66
2023-01-19T08:16:36.186Z,-0.64
2023-01-19T08:19:05.735Z,-0.59
2023-01-19T08:21:35.674Z,-0.69
2023-01-19T08:24:03.667Z,-0.60
2023-01-19T08:26:33.689Z,-0.50
2023-01-19T08:29:03.316Z,-0.51
2023-01-19T08:31:31.656Z,-0.46
2023-01-19T08:34:00.191Z,-0.45
2023-01-19T08:36:29.532Z,-0.35
2023-01-19T08:38:57.456Z,-0.37
2023-01-19T08:41:25.352Z,-0.23
2023-01-19T08:43:53.271Z,-0.24
2023-01-19T08:46:22.016Z,-0.15
2023-01-19T08:48:50.550Z,-0.02
2023-01-19T08:51:19.256Z,0.03
2023-01-19T08:53:48.691Z,-0.01
2023-01-19T08:56:18.011Z,-0.02
2023-01-19T08:58:53.647Z,0.04
2023-01-19T09:01:31.517Z,0.03
2023-01-19T09:03:59.514Z,0.03
2023-01-19T09:06:28.495Z,-0.04
2023-01-19T09:08:58.170Z,-0.01
2023-01-19T09:11:26.101Z,0.06
2023-01-19T09:13:54.234Z,0.10
2023-01-19T09:16:22.382Z,0.07
2023-01-19T09:18:50.348Z,0.11
2023-01-19T09:21:18.729Z,0.13
2023-01-19T09:23:46.613Z,0.13
2023-01-19T09:26:16.980Z,0.12
2023-01-19T09:28:44.908Z,0.20
2023-01-19T09:31:13.423Z,0.16
2023-01-19T09:33:41.960Z,0.16
2023-01-19T09:36:34.747Z,0.13
2023-01-19T09:44:20.599Z,0.19
2023-01-19T09:46:48.559Z,0.28
2023-01-19T09:49:18.442Z,0.21
2023-01-19T09:51:49.143Z,0.12
2023-01-19T09:54:19.618Z,0.20
2023-01-19T09:56:52.433Z,0.28
2023-01-19T09:59:25.319Z,0.37
2023-01-19T10:02:07.049Z,0.28
2023-01-19T10:04:51.332Z,0.29
2023-01-19T10:07:24.740Z,0.33
2023-01-19T10:13:39.889Z,-0.10
2023-01-19T10:16:23.320Z,0.22
2023-01-19T10:19:12.990Z,0.30
2023-01-19T10:21:44.481Z,-0.03
2023-01-19T10:24:19.516Z,0.29
2023-01-19T10:26:49.937Z,0.33
2023-01-19T10:29:26.109Z,0.25
2023-01-19T10:35:23.520Z,0.35
2023-01-19T10:37:52.987Z,0.33
2023-01-19T10:40:33.252Z,0.29
2023-01-19T10:43:01.671Z,0.30
2023-01-19T10:45:32.278Z,0.33
2023-01-19T10:48:07.489Z,0.22
2023-01-19T10:50:39.896Z,0.32
2023-01-19T10:53:19.216Z,0.22
2023-01-19T10:55:47.331Z,0.35
2023-01-19T10:58:29.781Z,0.24
2023-01-19T11:01:14.749Z,0.27
2023-01-19T11:03:44.529Z,0.25
2023-01-19T11:06:25.403Z,0.20
2023-01-19T11:08:54.775Z,0.16
2023-01-19T11:11:24.736Z,0.22
2023-01-19T11:14:10.140Z,0.25
2023-01-19T11:16:40.159Z,0.27
2023-01-19T11:19:20.292Z,0.28
2023-01-19T11:21:48.506Z,0.35
2023-01-19T11:24:16.674Z,0.35
2023-01-19T11:26:48.043Z,0.41
2023-01-19T11:29:19.967Z,0.41
2023-01-19T11:31:49.082Z,0.44
2023-01-19T11:34:32.903Z,0.55
2023-01-19T11:37:03.045Z,0.51
2023-01-19T11:39:33.157Z,0.59
2023-01-19T11:42:04.394Z,0.67
2023-01-19T11:44:36.532Z,0.72
2023-01-19T11:47:09.534Z,0.72
2023-01-19T11:49:45.345Z,0.89
2023-01-19T11:52:21.319Z,0.92
2023-01-19T11:54:57.766Z,0.99
2023-01-19T11:57:26.082Z,0.98
2023-01-19T11:59:56.376Z,1.20
2023-01-19T12:02:29.693Z,1.18
2023-01-19T12:05:05.759Z,1.34
2023-01-19T12:07:37.680Z,1.34
2023-01-19T12:10:20.970Z,1.18
2023-01-19T12:12:49.566Z,1.23
2023-01-19T12:15:31.798Z,1.17
2023-01-19T12:18:03.395Z,1.35
2023-01-19T12:20:38.727Z,1.27
2023-01-19T12:23:21.074Z,1.23
2023-01-19T12:26:00.773Z,1.19
2023-01-19T12:28:31.517Z,1.26
2023-01-19T12:31:02.139Z,1.12
2023-01-19T12:33:38.155Z,1.16
2023-01-19T12:36:14.419Z,1.17
2023-01-19T12:38:47.570Z,0.94
2023-01-19T12:41:24.832Z,1.15
2023-01-19T12:44:25.339Z,1.22
2023-01-19T12:46:57.443Z,1.26
2023-01-19T12:49:29.249Z,1.09
2023-01-19T12:52:17.406Z,1.11
2023-01-19T12:54:54.524Z,1.14
2023-01-19T12:57:26.764Z,1.20
2023-01-19T12:59:59.700Z,1.13
2023-01-19T13:02:47.037Z,1.20
2023-01-19T13:05:18.746Z,1.31
2023-01-19T13:08:17.087Z,1.35
2023-01-19T13:11:19.736Z,1.50
2023-01-19T13:14:27.621Z,1.27
2023-01-19T13:17:05.595Z,1.11
2023-01-19T13:19:48.236Z,0.96
2023-01-19T13:23:04.832Z,1.04
2023-01-19T13:25:36.729Z,0.95
2023-01-19T13:28:12.091Z,1.07
2023-01-19T13:30:50.107Z,0.95
2023-01-19T13:33:22.909Z,1.06
2023-01-19T13:35:58.684Z,0.99
2023-01-19T13:38:29.808Z,0.99
2023-01-19T13:41:03.226Z,1.12
2023-01-19T13:43:37.142Z,1.08
2023-01-19T13:46:05.563Z,1.10
2023-01-19T13:48:34.228Z,1.07
2023-01-19T13:51:05.176Z,1.09
2023-01-19T13:53:34.244Z,1.08
2023-01-19T13:56:17.644Z,1.15
2023-01-19T13:58:58.153Z,1.14
2023-01-19T14:01:29.258Z,1.09
2023-01-19T14:03:58.064Z,1.10
2023-01-19T14:06:34.787Z,1.11
2023-01-19T14:09:23.998Z,1.11
2023-01-19T14:12:17.629Z,1.08
2023-01-19T14:14:48.386Z,0.94
2023-01-19T14:17:25.271Z,1.11
2023-01-19T14:19:54.870Z,1.09
2023-01-19T14:22:22.929Z,1.05
2023-01-19T14:24:50.891Z,0.98
2023-01-19T14:27:25.313Z,0.99
2023-01-19T14:29:55.020Z,0.95
2023-01-19T14:32:24.464Z,0.98
2023-01-19T14:35:16.376Z,0.90
2023-01-19T14:37:50.178Z,0.91
2023-01-19T14:40:21.912Z,0.94
2023-01-19T14:42:54.564Z,0.94
2023-01-19T14:45:26.627Z,0.85
2023-01-19T14:47:57.887Z,0.90
2023-01-19T14:50:27.830Z,0.87
2023-01-19T14:53:00.394Z,0.82
2023-01-19T14:55:34.863Z,0.82
2023-01-19T14:58:11.201Z,0.86
2023-01-19T15:00:39.362Z,0.77
2023-01-19T15:03:07.458Z,0.89
2023-01-19T15:05:35.831Z,0.92
2023-01-19T15:08:05.412Z,0.89
2023-01-19T15:10:33.728Z,0.88
2023-01-19T15:13:02.145Z,0.83
2023-01-19T15:15:33.282Z,0.75
2023-01-19T15:18:03.783Z,0.76
2023-01-19T15:20:32.140Z,0.77
2023-01-19T15:23:00.093Z,0.81
2023-01-19T15:25:28.058Z,0.79
2023-01-19T15:27:59.850Z,0.82
2023-01-19T15:30:31.055Z,0.80
2023-01-19T15:33:20.809Z,0.74
2023-01-19T15:35:49.105Z,0.73
2023-01-19T15:38:17.101Z,0.73
2023-01-19T15:40:45.008Z,0.65
2023-01-19T15:43:12.959Z,0.68
2023-01-19T15:45:43.519Z,0.61
2023-01-19T15:48:13.205Z,0.71
2023-01-19T15:50:44.098Z,0.62
2023-01-19T15:53:15.865Z,0.52
2023-01-19T15:55:43.832Z,0.45
2023-01-19T15:58:13.982Z,0.40
2023-01-19T16:00:42.556Z,0.54
2023-01-19T16:03:11.883Z,0.53
2023-01-19T16:05:43.751Z,0.46
2023-01-19T16:08:13.383Z,0.35
2023-01-19T16:10:42.188Z,0.41
2023-01-19T16:13:10.851Z,0.36
2023-01-19T16:15:42.330Z,0.37
2023-01-19T16:18:10.319Z,0.35
2023-01-19T16:20:38.309Z,0.31
2023-01-19T16:23:21.363Z,0.22
2023-01-19T16:25:58.910Z,0.26
2023-01-19T16:28:27.731Z,0.26
2023-01-19T16:30:55.770Z,0.22
2023-01-19T16:33:23.769Z,0.19
2023-01-19T16:35:51.722Z,0.13
2023-01-19T16:38:20.119Z,0.13
2023-01-19T16:40:48.440Z,-0.03
2023-01-19T16:43:18.680Z,-0.03
2023-01-19T16:46:01.149Z,-0.06
2023-01-19T16:48:29.593Z,-0.07
2023-01-19T16:51:02.887Z,-0.03
2023-01-19T16:53:31.784Z,-0.11
2023-01-19T16:55:59.779Z,-0.12
2023-01-19T16:58:29.136Z,-0.15
2023-01-19T17:00:57.140Z,-0.07
2023-01-19T17:03:25.142Z,-0.09
2023-01-19T17:05:53.111Z,-0.17
2023-01-19T17:08:21.952Z,-0.05
2023-01-19T17:10:49.893Z,-0.15
2023-01-19T17:13:18.012Z,-0.22
2023-01-19T17:15:47.365Z,-0.17
2023-01-19T17:18:15.316Z,-0.09
2023-01-19T17:20:43.244Z,-0.23
2023-01-19T17:23:11.170Z,-0.15
2023-01-19T17:25:39.150Z,-0.32
2023-01-19T17:28:07.064Z,-0.32
2023-01-19T17:30:35.104Z,-0.39
2023-01-19T17:33:04.509Z,-0.34
2023-01-19T17:35:35.191Z,-0.42
2023-01-19T17:38:03.103Z,-0.34
2023-01-19T17:40:31.485Z,-0.43
2023-01-19T17:42:59.698Z,-0.43
2023-01-19T17:45:27.729Z,-0.28
2023-01-19T17:47:55.619Z,-0.27
2023-01-19T17:50:24.977Z,-0.49
2023-01-19T17:52:52.952Z,-0.41
2023-01-19T17:55:21.020Z,-0.44
2023-01-19T17:57:49.071Z,-0.40
2023-01-19T18:00:18.083Z,-0.49
2023-01-19T18:02:46.081Z,-0.61
2023-01-19T18:05:14.815Z,-0.64
2023-01-19T18:07:44.215Z,-0.63
2023-01-19T18:10:13.892Z,-0.65
2023-01-19T18:12:42.044Z,-0.50
2023-01-19T18:15:10.886Z,-0.52
2023-01-19T18:17:40.816Z,-0.44
2023-01-19T18:20:10.319Z,-0.45
2023-01-19T18:22:38.394Z,-0.50
2023-01-19T18:25:08.458Z,-0.40
2023-01-19T18:27:36.367Z,-0.41
2023-01-19T18:30:04.482Z,-0.40
2023-01-19T18:32:32.405Z,-0.40
2023-01-19T18:35:00.976Z,-0.47
2023-01-19T18:37:28.929Z,-0.47
2023-01-19T18:39:59.781Z,-0.42
2023-01-19T18:42:29.367Z,-0.42
2023-01-19T18:44:57.383Z,-0.38
2023-01-19T18:47:25.451Z,-0.43
2023-01-19T18:49:53.416Z,-0.47
2023-01-19T18:52:21.376Z,-0.49
2023-01-19T18:54:49.575Z,-0.38
2023-01-19T18:57:17.964Z,-0.36
2023-01-19T18:59:48.883Z,-0.44
2023-01-19T19:02:16.855Z,-0.35
2023-01-19T19:04:44.867Z,-0.38
2023-01-19T19:07:13.443Z,-0.43
2023-01-19T19:09:42.742Z,-0.37
2023-01-19T19:12:11.026Z,-0.37
2023-01-19T19:14:39.417Z,-0.45
2023-01-19T19:17:10.344Z,-0.46
2023-01-19T19:19:40.823Z,-0.52
2023-01-19T19:22:09.069Z,-0.50
2023-01-19T19:24:38.241Z,-0.49
2023-01-19T19:27:06.923Z,-0.53
2023-01-19T19:29:35.240Z,-0.52
2023-01-19T19:32:03.266Z,-0.51
2023-01-19T19:34:33.383Z,-0.50
2023-01-19T19:37:01.531Z,-0.48
2023-01-19T19:39:29.750Z,-0.44
2023-01-19T19:41:57.628Z,-0.38
2023-01-19T19:44:25.578Z,-0.42
2023-01-19T19:46:53.522Z,-0.45
2023-01-19T19:49:21.555Z,-0.49
2023-01-19T19:51:51.000Z,-0.49
2023-01-19T19:54:18.906Z,-0.46
2023-01-19T19:56:48.443Z,-0.47
2023-01-19T19:59:16.356Z,-0.43
2023-01-19T20:01:45.393Z,-0.43
2023-01-19T20:04:14.814Z,-0.37
2023-01-19T20:06:44.923Z,-0.39
2023-01-19T20:09:15.231Z,-0.41
2023-01-19T20:11:44.277Z,-0.48
2023-01-19T20:14:14.382Z,-0.44
2023-01-19T20:16:42.350Z,-0.39
2023-01-19T20:19:10.605Z,-0.54
2023-01-19T20:21:41.883Z,-0.66
2023-01-19T20:24:13.892Z,-0.61
2023-01-19T20:26:45.186Z,-0.62
2023-01-19T20:29:13.125Z,-0.53
2023-01-19T20:31:44.468Z,-0.56
2023-01-19T20:34:14.881Z,-0.47
2023-01-19T20:36:44.356Z,-0.44
2023-01-19T20:39:12.810Z,-0.45
2023-01-19T20:41:45.179Z,-0.41
2023-01-19T20:44:16.726Z,-0.46
2023-01-19T20:46:44.679Z,-0.45
2023-01-19T20:49:12.991Z,-0.58
2023-01-19T20:51:43.468Z,-0.65
2023-01-19T20:54:12.079Z,-0.56
2023-01-19T20:56:42.822Z,-0.47
2023-01-19T20:59:12.414Z,-0.35
2023-01-19T21:01:42.596Z,-0.44
2023-01-19T21:04:13.771Z,-0.39
2023-01-19T21:06:42.625Z,-0.49
2023-01-19T21:09:14.248Z,-0.48
2023-01-19T21:11:44.769Z,-0.46
2023-01-19T21:14:17.686Z,-0.49
2023-01-19T21:16:48.602Z,-0.43
2023-01-19T21:19:18.327Z,-0.47
2023-01-19T21:21:48.738Z,-0.54
2023-01-19T21:24:16.709Z,-0.48
2023-01-19T21:26:48.340Z,-0.42
2023-01-19T21:29:16.374Z,-0.40
2023-01-19T21:31:47.801Z,-0.33
2023-01-19T21:34:17.929Z,-0.43
2023-01-19T21:36:47.931Z,-0.38
2023-01-19T21:39:17.374Z,-0.39
2023-01-19T21:41:45.472Z,-0.35
2023-01-19T21:44:14.442Z,-0.35
2023-01-19T21:46:43.520Z,-0.31
2023-01-19T21:49:18.418Z,-0.29
2023-01-19T21:51:47.985Z,-0.31
2023-01-19T21:54:16.070Z,-0.38
2023-01-19T21:56:44.197Z,-0.34
2023-01-19T21:59:14.777Z,-0.39
2023-01-19T22:01:44.515Z,-0.35
2023-01-19T22:04:12.815Z,-0.43
2023-01-19T22:06:42.183Z,-0.39
2023-01-19T22:09:10.128Z,-0.38
2023-01-19T22:11:38.099Z,-0.35
2023-01-19T22:14:06.370Z,-0.28
2023-01-19T22:16:34.370Z,-0.22
2023-01-19T22:19:02.740Z,-0.23
2023-01-19T22:21:33.467Z,-0.25
2023-01-19T22:24:04.807Z,-0.22
2023-01-19T22:26:34.869Z,-0.30
2023-01-19T22:31:40.893Z,-0.29
2023-01-19T22:34:10.427Z,-0.29
2023-01-19T22:36:39.459Z,-0.24
2023-01-19T22:39:10.687Z,-0.41
2023-01-19T22:41:40.708Z,-0.29
2023-01-19T22:44:11.567Z,-0.40
2023-01-19T22:46:39.876Z,-0.48
2023-01-19T22:49:08.842Z,-0.41
2023-01-19T22:51:37.413Z,-0.34
2023-01-19T22:54:05.805Z,-0.26
2023-01-19T22:56:37.113Z,-0.30
2023-01-19T22:59:05.674Z,-0.42
2023-01-19T23:01:36.128Z,-0.34
2023-01-19T23:04:05.656Z,-0.34
2023-01-19T23:06:35.150Z,-0.31
2023-01-19T23:09:05.561Z,-0.31
2023-01-19T23:11:37.472Z,-0.28
2023-01-19T23:14:07.060Z,-0.27
2023-01-19T23:16:35.146Z,-0.26
2023-01-19T23:19:03.316Z,-0.29
2023-01-19T23:21:33.267Z,-0.38
2023-01-19T23:24:02.961Z,-0.42
2023-01-19T23:26:38.053Z,-0.54
2023-01-19T23:29:09.493Z,-0.45
2023-01-19T23:31:38.811Z,-0.50
2023-01-19T23:34:08.517Z,-0.49
2023-01-19T23:36:38.400Z,-0.43
2023-01-19T23:39:09.941Z,-0.34
2023-01-19T23:41:37.960Z,-0.40
2023-01-19T23:44:07.354Z,-0.39
2023-01-19T23:46:35.459Z,-0.40
2023-01-19T23:49:03.456Z,-0.37
2023-01-19T23:51:33.193Z,-0.42
2023-01-19T23:54:01.908Z,-0.45
2023-01-19T23:56:32.945Z,-0.52
2023-01-19T23:59:03.710Z,-0.45
